createdAt,value
2018-03-04T00:01:22.317Z,100055.41
2018-03-04T00:03:50.714Z,100071.61
2018-03-04T00:06:19.242Z,100066.05
2018-03-04T00:08:48.350Z,100052.27
2018-03-04T00:11:18.338Z,100055.86
2018-03-04T00:13:46.839Z,100056.14
2018-03-04T00:16:16.569Z,100055.85
2018-03-04T00:18:45.386Z,100061.50
2018-03-04T00:21:14.937Z,100064.28
2018-03-04T00:23:44.668Z,100068.45
2018-03-04T00:26:13.271Z,100077.05
2018-03-04T00:28:43.491Z,100074.09
2018-03-04T00:31:11.893Z,100082.61
2018-03-04T00:33:40.331Z,100097.69
2018-03-04T00:36:08.765Z,100095.29
2018-03-04T00:38:39.179Z,100082.09
2018-03-04T00:41:08.110Z,100088.93
2018-03-04T00:43:37.528Z,100079.12
2018-03-04T00:46:06.272Z,100074.59
2018-03-04T00:48:37.262Z,100082.09
2018-03-04T00:51:05.777Z,100074.58
2018-03-04T00:53:34.988Z,100074.41
2018-03-04T00:56:04.755Z,100072.02
2018-03-04T00:58:34.463Z,100061.41
2018-03-04T01:01:03.123Z,100062.34
2018-03-04T01:03:32.978Z,100063.94
2018-03-04T01:06:01.488Z,100055.67
2018-03-04T01:08:30.117Z,100062.27
2018-03-04T01:10:59.721Z,100059.16
2018-03-04T01:13:28.787Z,100048.21
2018-03-04T01:15:57.528Z,100043.84
2018-03-04T01:18:28.305Z,100048.95
2018-03-04T01:20:58.876Z,100050.27
2018-03-04T01:23:27.298Z,100036.30
2018-03-04T01:25:56.657Z,100028.25
2018-03-04T01:28:25.608Z,100035.31
2018-03-04T01:30:55.041Z,100029.74
2018-03-04T01:33:24.818Z,100032.23
2018-03-04T01:35:53.355Z,100035.75
2018-03-04T01:38:24.395Z,100033.88
2018-03-04T01:40:53.454Z,100038.09
2018-03-04T01:43:23.121Z,100043.30
2018-03-04T01:45:53.204Z,100037.13
2018-03-04T01:48:21.838Z,100036.84
2018-03-04T01:50:53.093Z,100032.31
2018-03-04T01:53:24.188Z,100027.91
2018-03-04T01:55:53.033Z,100034.58
2018-03-04T01:58:23.152Z,100026.72
2018-03-04T02:00:52.242Z,100028.02
2018-03-04T02:03:21.139Z,100031.37
2018-03-04T02:05:51.833Z,100023.80
2018-03-04T02:08:20.448Z,100022.27
2018-03-04T02:10:49.091Z,100031.41
2018-03-04T02:13:19.005Z,100031.48
2018-03-04T02:15:47.973Z,100028.44
2018-03-04T02:18:18.679Z,100038.16
2018-03-04T02:20:47.332Z,100052.12
2018-03-04T02:23:16.905Z,100037.33
2018-03-04T02:25:46.214Z,100033.98
2018-03-04T02:28:15.064Z,100028.14
2018-03-04T02:30:43.896Z,100038.39
2018-03-04T02:33:12.652Z,100039.81
2018-03-04T02:35:41.479Z,100039.85
2018-03-04T02:38:10.264Z,100043.96
2018-03-04T02:40:38.986Z,100045.08
2018-03-04T02:43:08.729Z,100042.52
2018-03-04T02:45:38.873Z,100034.20
2018-03-04T02:48:07.850Z,100033.78
2018-03-04T02:50:37.083Z,100036.74
2018-03-04T02:53:05.609Z,100043.59
2018-03-04T02:55:34.929Z,100049.33
2018-03-04T02:58:03.507Z,100045.77
2018-03-04T03:00:32.521Z,100037.78
2018-03-04T03:03:01.294Z,100042.92
2018-03-04T03:05:29.744Z,100038.02
2018-03-04T03:07:58.704Z,100038.41
2018-03-04T03:10:27.530Z,100036.75
2018-03-04T03:12:55.931Z,100022.23
2018-03-04T03:15:25.988Z,100035.96
2018-03-04T03:17:54.900Z,100022.63
2018-03-04T03:20:24.075Z,100031.67
2018-03-04T03:22:52.930Z,100019.70
2018-03-04T03:25:21.803Z,100020.97
2018-03-04T03:27:50.827Z,100036.42
2018-03-04T03:30:19.687Z,100020.50
2018-03-04T03:32:49.510Z,100016.99
2018-03-04T03:35:19.103Z,100023.73
2018-03-04T03:37:48.037Z,100026.39
2018-03-04T03:40:20.078Z,100031.84
2018-03-04T03:42:48.897Z,100032.05
2018-03-04T03:45:19.604Z,100033.97
2018-03-04T03:47:48.145Z,100022.58
2018-03-04T03:50:17.413Z,100020.21
2018-03-04T03:52:46.619Z,100011.62
2018-03-04T03:55:16.297Z,100017.62
2018-03-04T03:57:46.017Z,100020.08
2018-03-04T04:00:14.574Z,100015.88
2018-03-04T04:02:45.553Z,100005.69
2018-03-04T04:05:16.149Z,100010.44
2018-03-04T04:07:44.932Z,100008.89
2018-03-04T04:10:14.887Z,100005.12
2018-03-04T04:12:44.072Z,100006.51
2018-03-04T04:15:13.804Z,99998.85
2018-03-04T04:17:43.697Z,99993.72
2018-03-04T04:20:12.126Z,99993.75
2018-03-04T04:22:42.509Z,99998.89
2018-03-04T04:25:11.113Z,100018.80
2018-03-04T04:27:41.445Z,100008.58
2018-03-04T04:30:11.811Z,100017.73
2018-03-04T04:32:40.837Z,99999.98
2018-03-04T04:35:10.680Z,100001.69
2018-03-04T04:37:39.646Z,100004.11
2018-03-04T04:40:09.052Z,99990.19
2018-03-04T04:42:38.579Z,99997.90
2018-03-04T04:45:06.986Z,99998.36
2018-03-04T04:47:36.329Z,99991.66
2018-03-04T04:50:05.157Z,99996.78
2018-03-04T04:52:37.819Z,99994.53
2018-03-04T04:55:07.707Z,99994.45
2018-03-04T04:57:36.256Z,99984.72
2018-03-04T05:00:05.105Z,99990.00
2018-03-04T05:02:33.712Z,99987.94
2018-03-04T05:05:02.417Z,99987.96
2018-03-04T05:07:33.203Z,99977.03
2018-03-04T05:10:01.859Z,99980.36
2018-03-04T05:12:31.168Z,99984.67
2018-03-04T05:15:00.494Z,99975.83
2018-03-04T05:17:28.924Z,99983.94
2018-03-04T05:19:58.404Z,99975.98
2018-03-04T05:22:27.224Z,99994.16
2018-03-04T05:24:56.368Z,99988.21
2018-03-04T05:27:24.907Z,99989.05
2018-03-04T05:29:54.270Z,99990.82
2018-03-04T05:32:24.623Z,99994.93
2018-03-04T05:34:53.448Z,99994.27
2018-03-04T05:37:22.305Z,99994.33
2018-03-04T05:39:51.098Z,100002.45
2018-03-04T05:42:19.900Z,99994.68
2018-03-04T05:44:49.625Z,100003.05
2018-03-04T05:47:18.396Z,99995.22
2018-03-04T05:49:47.817Z,99995.59
2018-03-04T05:52:16.660Z,99989.05
2018-03-04T05:54:45.358Z,99996.70
2018-03-04T05:57:15.901Z,99996.36
2018-03-04T05:59:44.980Z,99999.53
2018-03-04T06:02:13.869Z,100010.88
2018-03-04T06:04:42.431Z,99993.10
2018-03-04T06:07:12.949Z,99997.69
2018-03-04T06:09:41.646Z,100000.36
2018-03-04T06:12:10.317Z,100005.94
2018-03-04T06:14:40.604Z,99999.72
2018-03-04T06:17:10.878Z,100006.02
2018-03-04T06:19:39.824Z,99997.55
2018-03-04T06:22:09.243Z,100007.57
2018-03-04T06:24:38.468Z,99997.50
2018-03-04T06:27:06.886Z,100002.91
2018-03-04T06:29:35.783Z,99996.37
2018-03-04T06:32:04.977Z,99996.11
2018-03-04T06:34:35.217Z,99992.83
2018-03-04T06:37:04.025Z,99987.54
2018-03-04T06:39:33.255Z,99985.91
2018-03-04T06:42:03.930Z,99981.97
2018-03-04T06:44:32.455Z,99977.11
2018-03-04T06:47:01.236Z,99984.70
2018-03-04T06:49:29.644Z,99972.58
2018-03-04T06:51:59.027Z,99974.33
2018-03-04T06:54:27.520Z,99975.98
2018-03-04T06:56:57.716Z,99969.27
2018-03-04T06:59:26.353Z,99976.09
2018-03-04T07:01:54.825Z,99969.22
2018-03-04T07:04:23.632Z,99964.20
2018-03-04T07:06:52.239Z,99968.53
2018-03-04T07:09:22.993Z,99948.41
2018-03-04T07:11:52.078Z,99961.03
2018-03-04T07:14:22.340Z,99951.30
2018-03-04T07:16:51.397Z,99956.31
2018-03-04T07:19:20.642Z,99960.36
2018-03-04T07:21:51.568Z,99948.66
2018-03-04T07:24:20.064Z,99944.61
2018-03-04T07:26:49.228Z,99948.22
2018-03-04T07:29:18.925Z,99954.15
2018-03-04T07:31:47.422Z,99951.22
2018-03-04T07:34:16.016Z,99938.97
2018-03-04T07:36:45.751Z,99941.90
2018-03-04T07:39:16.288Z,99936.81
2018-03-04T07:41:45.202Z,99950.12
2018-03-04T07:44:14.164Z,99932.19
2018-03-04T07:46:45.013Z,99923.89
2018-03-04T07:49:14.399Z,99916.05
2018-03-04T07:51:44.055Z,99916.63
2018-03-04T07:54:13.851Z,99910.17
2018-03-04T07:56:42.728Z,99912.38
2018-03-04T07:59:11.476Z,99923.31
2018-03-04T08:01:46.162Z,99917.72
2018-03-04T08:04:14.941Z,99935.27
2018-03-04T08:06:43.715Z,99930.82
2018-03-04T08:09:12.676Z,99915.83
2018-03-04T08:11:42.831Z,99920.81
2018-03-04T08:14:12.870Z,99917.86
2018-03-04T08:16:41.814Z,99916.34
2018-03-04T08:19:11.078Z,99924.54
2018-03-04T08:21:41.004Z,99913.62
2018-03-04T08:24:09.861Z,99918.61
2018-03-04T08:26:56.282Z,99925.84
2018-03-04T08:29:25.318Z,99913.88
2018-03-04T08:31:53.833Z,99913.06
2018-03-04T08:34:22.360Z,99899.20
2018-03-04T08:36:52.607Z,99898.61
2018-03-04T08:39:22.150Z,99908.27
2018-03-04T08:41:51.764Z,99901.66
2018-03-04T08:44:20.911Z,99897.17
2018-03-04T08:46:51.271Z,99893.98
2018-03-04T08:49:19.895Z,99893.11
2018-03-04T08:51:49.976Z,99884.27
2018-03-04T08:54:19.271Z,99877.27
2018-03-04T08:56:49.265Z,99893.16
2018-03-04T08:59:17.738Z,99884.25
2018-03-04T09:01:46.239Z,99886.45
2018-03-04T09:04:14.697Z,99882.47
2018-03-04T09:06:43.179Z,99874.92
2018-03-04T09:09:11.806Z,99879.61
2018-03-04T09:11:40.654Z,99871.31
2018-03-04T09:14:09.211Z,99876.47
2018-03-04T09:16:37.655Z,99871.30
2018-03-04T09:19:06.096Z,99876.63
2018-03-04T09:21:35.080Z,99871.98
2018-03-04T09:24:03.708Z,99861.14
2018-03-04T09:26:32.164Z,99874.56
2018-03-04T09:29:00.727Z,99866.05
2018-03-04T09:31:29.260Z,99859.81
2018-03-04T09:33:58.204Z,99867.57
2018-03-04T09:36:26.692Z,99857.16
2018-03-04T09:38:55.181Z,99867.33
2018-03-04T09:41:23.632Z,99854.34
2018-03-04T09:43:52.115Z,99855.37
2018-03-04T09:46:20.614Z,99840.95
2018-03-04T09:48:49.049Z,99848.43
2018-03-04T09:51:17.891Z,99864.09
2018-03-04T09:53:46.332Z,99856.66
2018-03-04T09:56:14.838Z,99855.73
2018-03-04T09:58:43.292Z,99850.59
2018-03-04T10:01:11.748Z,99867.59
2018-03-04T10:03:40.666Z,99850.44
2018-03-04T10:06:09.167Z,99852.04
2018-03-04T10:08:37.620Z,99848.26
2018-03-04T10:11:06.585Z,99846.14
2018-03-04T10:13:35.129Z,99843.56
2018-03-04T10:16:03.612Z,99837.37
2018-03-04T10:18:32.078Z,99849.30
2018-03-04T10:21:01.004Z,99847.56
2018-03-04T10:23:29.855Z,99845.40
2018-03-04T10:25:58.314Z,99844.98
2018-03-04T10:28:27.212Z,99837.61
2018-03-04T10:30:56.057Z,99846.27
2018-03-04T10:33:24.496Z,99831.91
2018-03-04T10:35:52.994Z,99827.59
2018-03-04T10:38:21.435Z,99835.40
2018-03-04T10:40:50.297Z,99829.73
2018-03-04T10:43:18.737Z,99821.89
2018-03-04T10:45:47.222Z,99812.24
2018-03-04T10:48:15.669Z,99814.84
2018-03-04T10:50:44.517Z,99811.86
2018-03-04T10:53:12.960Z,99803.69
2018-03-04T10:55:41.477Z,99808.48
2018-03-04T10:58:09.936Z,99799.31
2018-03-04T11:00:44.028Z,99790.53
2018-03-04T11:03:18.867Z,99795.83
2018-03-04T11:05:47.384Z,99793.25
2018-03-04T11:08:15.860Z,99788.67
2018-03-04T11:10:44.319Z,99788.79
2018-03-04T11:13:12.779Z,99792.44
2018-03-04T11:15:41.222Z,99781.05
2018-03-04T11:18:09.665Z,99786.92
2018-03-04T11:20:38.189Z,99791.05
2018-03-04T11:23:06.636Z,99783.23
2018-03-04T11:25:35.072Z,99774.93
2018-03-04T11:28:03.996Z,99775.38
2018-03-04T11:30:32.448Z,99778.44
2018-03-04T11:33:01.299Z,99779.13
2018-03-04T11:35:29.745Z,99773.48
2018-03-04T11:37:58.192Z,99769.35
2018-03-04T11:40:27.029Z,99775.83
2018-03-04T11:42:55.558Z,99763.46
2018-03-04T11:45:24.085Z,99764.59
2018-03-04T11:47:52.520Z,99762.68
2018-03-04T11:50:21.390Z,99770.58
2018-03-04T11:52:49.849Z,99764.81
2018-03-04T11:55:18.326Z,99771.44
2018-03-04T11:57:46.757Z,99756.30
2018-03-04T12:00:15.695Z,99754.53
2018-03-04T12:02:44.183Z,99762.30
2018-03-04T12:05:12.628Z,99752.85
2018-03-04T12:07:41.136Z,99748.83
2018-03-04T12:10:09.617Z,99747.81
2018-03-04T12:12:38.134Z,99750.95
2018-03-04T12:15:06.580Z,99745.88
2018-03-04T12:17:35.061Z,99748.58
2018-03-04T12:20:03.520Z,99743.71
2018-03-04T12:22:31.951Z,99737.43
2018-03-04T12:25:00.390Z,99740.00
2018-03-04T12:27:28.893Z,99738.58
2018-03-04T12:29:57.333Z,99724.38
2018-03-04T12:32:26.165Z,99719.59
2018-03-04T12:34:54.609Z,99721.67
2018-03-04T12:37:23.116Z,99714.56
2018-03-04T12:39:51.551Z,99715.06
2018-03-04T12:42:20.481Z,99701.73
2018-03-04T12:44:49.839Z,99707.07
2018-03-04T12:47:18.540Z,99705.28
2018-03-04T12:49:47.004Z,99702.66
2018-03-04T12:52:15.519Z,99704.97
2018-03-04T12:54:44.025Z,99703.44
2018-03-04T12:57:12.514Z,99708.91
2018-03-04T12:59:40.948Z,99708.16
2018-03-04T13:02:09.884Z,99709.52
2018-03-04T13:04:38.357Z,99722.83
2018-03-04T13:07:06.808Z,99717.08
2018-03-04T13:09:35.243Z,99707.59
2018-03-04T13:12:03.734Z,99724.69
2018-03-04T13:14:32.177Z,99711.72
2018-03-04T13:17:00.607Z,99705.79
2018-03-04T13:19:29.046Z,99710.08
2018-03-04T13:21:57.511Z,99705.01
2018-03-04T13:24:25.981Z,99701.92
2018-03-04T13:26:54.480Z,99702.70
2018-03-04T13:29:22.972Z,99697.02
2018-03-04T13:31:51.432Z,99687.96
2018-03-04T13:34:19.879Z,99679.86
2018-03-04T13:36:48.803Z,99677.11
2018-03-04T13:39:17.297Z,99688.68
2018-03-04T13:41:45.774Z,99684.95
2018-03-04T13:44:14.208Z,99674.41
2018-03-04T13:46:43.060Z,99677.41
2018-03-04T13:49:11.531Z,99673.69
2018-03-04T13:51:40.011Z,99665.80
2018-03-04T13:54:08.492Z,99665.48
2018-03-04T13:56:36.984Z,99670.62
2018-03-04T13:59:05.412Z,99658.98
2018-03-04T14:01:34.249Z,99666.09
2018-03-04T14:04:02.700Z,99672.73
2018-03-04T14:06:31.210Z,99663.89
2018-03-04T14:08:59.669Z,99655.46
2018-03-04T14:11:28.134Z,99644.54
2018-03-04T14:13:56.995Z,99640.27
2018-03-04T14:16:25.494Z,99649.44
2018-03-04T14:18:54.333Z,99648.09
2018-03-04T14:21:22.776Z,99637.67
2018-03-04T14:23:51.629Z,99637.80
2018-03-04T14:26:20.080Z,99641.38
2018-03-04T14:28:48.564Z,99643.42
2018-03-04T14:31:17.017Z,99629.55
2018-03-04T14:33:45.478Z,99623.73
2018-03-04T14:36:14.425Z,99617.73
2018-03-04T14:38:42.901Z,99619.52
2018-03-04T14:41:12.245Z,99619.94
2018-03-04T14:43:40.768Z,99623.35
2018-03-04T14:46:09.295Z,99615.42
2018-03-04T14:48:37.712Z,99599.41
2018-03-04T14:51:06.221Z,99612.47
2018-03-04T14:53:34.672Z,99607.19
2018-03-04T14:56:03.121Z,99606.65
2018-03-04T14:58:31.564Z,99598.21
2018-03-04T15:01:00.020Z,99586.37
2018-03-04T15:03:28.538Z,99589.27
2018-03-04T15:05:56.975Z,99578.12
2018-03-04T15:08:25.811Z,99575.23
2018-03-04T15:10:54.256Z,99575.95
2018-03-04T15:13:22.728Z,99578.97
2018-03-04T15:15:51.544Z,99591.69
2018-03-04T15:18:20.057Z,99578.61
2018-03-04T15:20:48.509Z,99588.09
2018-03-04T15:23:16.989Z,99583.75
2018-03-04T15:25:45.419Z,99575.52
2018-03-04T15:28:13.848Z,99565.27
2018-03-04T15:30:43.045Z,99557.87
2018-03-04T15:33:11.896Z,99559.45
2018-03-04T15:35:40.742Z,99569.70
2018-03-04T15:38:09.229Z,99566.42
2018-03-04T15:40:37.677Z,99559.48
2018-03-04T15:43:06.108Z,99577.14
2018-03-04T15:45:34.551Z,99578.12
2018-03-04T15:48:02.990Z,99574.65
2018-03-04T15:50:31.923Z,99565.56
2018-03-04T15:53:00.440Z,99581.91
2018-03-04T15:55:29.304Z,99569.77
2018-03-04T15:57:57.817Z,99571.98
2018-03-04T16:00:26.260Z,99565.57
2018-03-04T16:02:54.719Z,99565.59
2018-03-04T16:05:23.191Z,99564.39
2018-03-04T16:07:51.632Z,99569.84
2018-03-04T16:10:20.103Z,99575.06
2018-03-04T16:12:48.542Z,99587.09
2018-03-04T16:15:17.048Z,99582.87
2018-03-04T16:17:45.481Z,99577.64
2018-03-04T16:20:13.948Z,99581.39
2018-03-04T16:22:42.373Z,99586.73
2018-03-04T16:25:11.404Z,99579.42
2018-03-04T16:27:39.846Z,99575.36
2018-03-04T16:30:08.307Z,99576.63
2018-03-04T16:32:36.745Z,99581.31
2018-03-04T16:35:05.198Z,99586.14
2018-03-04T16:37:33.956Z,99581.17
2018-03-04T16:40:02.457Z,99586.16
2018-03-04T16:42:30.911Z,99588.32
2018-03-04T16:44:59.768Z,99591.66
2018-03-04T16:47:28.325Z,99573.04
2018-03-04T16:49:56.759Z,99570.61
2018-03-04T16:52:25.705Z,99573.53
2018-03-04T16:54:54.177Z,99550.77
2018-03-04T16:57:22.621Z,99551.47
2018-03-04T16:59:51.081Z,99553.23
2018-03-04T17:02:19.643Z,99556.53
2018-03-04T17:04:48.138Z,99553.08
2018-03-04T17:07:16.676Z,99556.80
2018-03-04T17:09:45.174Z,99553.36
2018-03-04T17:12:13.784Z,99537.48
2018-03-04T17:14:42.226Z,99543.25
2018-03-04T17:17:10.673Z,99561.00
2018-03-04T17:19:40.110Z,99553.34
2018-03-04T17:22:08.577Z,99557.23
2018-03-04T17:24:37.177Z,99560.25
2018-03-04T17:27:05.659Z,99553.94
2018-03-04T17:29:34.110Z,99555.22
2018-03-04T17:32:02.645Z,99551.65
2018-03-04T17:34:31.097Z,99553.67
2018-03-04T17:36:59.614Z,99566.13
2018-03-04T17:39:28.056Z,99566.22
2018-03-04T17:41:56.503Z,99562.20
2018-03-04T17:44:25.339Z,99560.08
2018-03-04T17:46:53.920Z,99553.77
2018-03-04T17:49:22.377Z,99563.40
2018-03-04T17:51:50.873Z,99554.39
2018-03-04T17:54:19.325Z,99561.89
2018-03-04T17:56:48.269Z,99565.35
2018-03-04T17:59:16.712Z,99577.56
2018-03-04T18:01:45.216Z,99574.80
2018-03-04T18:04:13.652Z,99566.92
2018-03-04T18:06:42.600Z,99568.81
2018-03-04T18:09:11.040Z,99567.95
2018-03-04T18:11:39.543Z,99564.88
2018-03-04T18:14:07.990Z,99558.44
2018-03-04T18:16:36.824Z,99550.58
2018-03-04T18:19:05.303Z,99558.24
2018-03-04T18:21:33.800Z,99545.06
2018-03-04T18:24:02.678Z,99542.16
2018-03-04T18:26:31.120Z,99533.01
2018-03-04T18:28:59.636Z,99543.69
2018-03-04T18:31:28.112Z,99530.81
2018-03-04T18:33:56.585Z,99538.29
2018-03-04T18:36:25.053Z,99542.95
2018-03-04T18:38:53.558Z,99536.06
2018-03-04T18:41:22.008Z,99541.73
2018-03-04T18:43:50.470Z,99537.34
2018-03-04T18:46:19.312Z,99552.03
2018-03-04T18:48:47.757Z,99554.11
2018-03-04T18:51:16.683Z,99545.19
2018-03-04T18:53:45.745Z,99542.89
2018-03-04T18:56:14.575Z,99553.07
2018-03-04T18:58:43.053Z,99545.27
2018-03-04T19:01:11.501Z,99532.08
2018-03-04T19:03:39.941Z,99528.36
2018-03-04T19:06:08.836Z,99516.17
2018-03-04T19:08:37.399Z,99511.23
2018-03-04T19:11:05.858Z,99505.62
2018-03-04T19:13:34.301Z,99508.75
2018-03-04T19:16:03.266Z,99508.22
2018-03-04T19:18:32.185Z,99502.16
2018-03-04T19:21:01.092Z,99502.15
2018-03-04T19:23:29.613Z,99495.14
2018-03-04T19:25:58.070Z,99501.21
2018-03-04T19:28:26.522Z,99501.02
2018-03-04T19:30:55.016Z,99492.17
2018-03-04T19:33:23.475Z,99497.73
2018-03-04T19:35:52.406Z,99504.24
2018-03-04T19:38:20.845Z,99508.38
2018-03-04T19:40:49.893Z,99503.73
2018-03-04T19:43:18.337Z,99496.23
2018-03-04T19:45:46.855Z,99501.27
2018-03-04T19:48:15.333Z,99507.95
2018-03-04T19:50:43.789Z,99499.94
2018-03-04T19:53:12.236Z,99517.31
2018-03-04T19:55:41.593Z,99512.92
2018-03-04T19:58:10.504Z,99518.34
2018-03-04T20:00:39.507Z,99522.18
2018-03-04T20:03:08.661Z,99526.73
2018-03-04T20:05:37.125Z,99527.53
2018-03-04T20:08:05.645Z,99525.33
2018-03-04T20:10:34.101Z,99525.97
2018-03-04T20:13:02.554Z,99523.19
2018-03-04T20:15:31.413Z,99530.80
2018-03-04T20:17:59.851Z,99523.77
2018-03-04T20:20:28.386Z,99515.86
2018-03-04T20:22:56.939Z,99510.38
2018-03-04T20:25:25.396Z,99502.12
2018-03-04T20:27:54.810Z,99498.19
2018-03-04T20:30:23.306Z,99492.25
2018-03-04T20:32:51.783Z,99478.69
2018-03-04T20:35:20.232Z,99477.98
2018-03-04T20:37:48.677Z,99482.95
2018-03-04T20:40:17.120Z,99485.72
2018-03-04T20:42:45.570Z,99481.66
2018-03-04T20:45:14.421Z,99484.34
2018-03-04T20:47:42.869Z,99489.22
2018-03-04T20:50:11.351Z,99488.70
2018-03-04T20:52:39.788Z,99480.17
2018-03-04T20:55:08.749Z,99478.58
2018-03-04T20:57:37.209Z,99471.56
2018-03-04T21:00:05.691Z,99466.98
2018-03-04T21:02:35.067Z,99460.36
2018-03-04T21:05:04.020Z,99474.45
2018-03-04T21:07:33.313Z,99470.20
2018-03-04T21:10:03.396Z,99458.55
2018-03-04T21:12:32.232Z,99456.64
2018-03-04T21:15:00.847Z,99460.52
2018-03-04T21:17:29.375Z,99445.52
2018-03-04T21:19:58.957Z,99447.59
2018-03-04T21:22:27.592Z,99452.43
2018-03-04T21:24:56.973Z,99438.07
2018-03-04T21:27:27.259Z,99441.66
2018-03-04T21:29:58.347Z,99436.01
2018-03-04T21:32:26.807Z,99429.51
2018-03-04T21:34:55.602Z,99425.87
2018-03-04T21:37:24.695Z,99431.35
2018-03-04T21:39:53.187Z,99421.36
2018-03-04T21:42:21.759Z,99423.67
2018-03-04T21:44:50.818Z,99420.41
2018-03-04T21:47:20.726Z,99419.71
2018-03-04T21:49:49.185Z,99419.38
2018-03-04T21:52:18.542Z,99423.44
2018-03-04T21:54:47.300Z,99439.94
2018-03-04T21:57:15.753Z,99441.46
2018-03-04T21:59:44.306Z,99456.16
2018-03-04T22:02:13.659Z,99458.52
2018-03-04T22:04:42.936Z,99461.48
2018-03-04T22:07:11.434Z,99465.09
2018-03-04T22:09:40.608Z,99456.67
2018-03-04T22:12:09.730Z,99465.58
2018-03-04T22:14:39.970Z,99450.41
2018-03-04T22:17:09.284Z,99450.36
2018-03-04T22:19:37.731Z,99450.83
2018-03-04T22:22:06.620Z,99455.26
2018-03-04T22:24:35.924Z,99464.90
2018-03-04T22:27:05.343Z,99463.92
2018-03-04T22:29:35.796Z,99452.83
2018-03-04T22:32:05.337Z,99444.94
2018-03-04T22:34:35.566Z,99445.81
2018-03-04T22:37:04.803Z,99448.94
2018-03-04T22:39:34.388Z,99450.70
2018-03-04T22:42:03.391Z,99451.39
2018-03-04T22:44:32.336Z,99444.59
2018-03-04T22:47:01.580Z,99447.03
2018-03-04T22:49:31.551Z,99443.75
2018-03-04T22:52:00.482Z,99447.40
2018-03-04T22:54:30.127Z,99443.34
2018-03-04T22:56:58.939Z,99455.81
2018-03-04T22:59:27.569Z,99452.97
2018-03-04T23:01:56.463Z,99456.49
2018-03-04T23:04:26.036Z,99456.98
2018-03-04T23:06:55.576Z,99453.52
2018-03-04T23:09:25.860Z,99444.95
2018-03-04T23:11:54.669Z,99441.05
2018-03-04T23:14:23.440Z,99438.85
2018-03-04T23:16:53.295Z,99435.61
2018-03-04T23:19:23.313Z,99438.47
2018-03-04T23:21:53.585Z,99440.73
2018-03-04T23:24:22.284Z,99441.88
2018-03-04T23:26:52.368Z,99436.91
2018-03-04T23:29:24.041Z,99442.59
2018-03-04T23:31:52.615Z,99434.84
2018-03-04T23:34:22.913Z,99433.70
2018-03-04T23:36:51.988Z,99436.25
2018-03-04T23:39:22.030Z,99441.82
2018-03-04T23:41:52.298Z,99429.61
2018-03-04T23:44:20.757Z,99433.89
2018-03-04T23:46:50.559Z,99438.64
2018-03-04T23:49:19.855Z,99429.49
2018-03-04T23:51:48.680Z,99417.50
2018-03-04T23:54:17.187Z,99405.17
2018-03-04T23:56:46.716Z,99405.98
2018-03-04T23:59:15.459Z,99416.80
